Panorama WebCam JadeWeserAirport, sowie die WebCams Emden - Wangerooge - Leer-Papenburg - Langeoog - Baltrum - Juist - Borkum -

Die Wetterinformationen haben nur informativen Charakter und dürfen nicht zum Zwecke der Flugplanung benutzt werden.

METAR EDWI 270150Z AUTO 10004KT 3300 -DZ BKN001 13/// Q1021=
METAR ETNT 270120Z AUTO 09006KT 0150 // ////// 12/12 Q1021 ///
METAR ETMN 270120Z 09004KT 0400 FG 11/11 Q1022 RED
 

Die WebCams auf Helgoland finden sie hier. WebCams Helgoland